• Join FlightAware (Why Join?)
  • Login
  • US Flag 
02:15AM EDT


 

Airport Tracker/Info


-or-


 

Live Flight TrackerFlight Track Log ✈ UCA3596 ✈ 16-Oct-2013 ✈ KBGM - KIAD

Flight Track Log - Related Links

Times and Time Zones

All times are in EDT time to prevent confusion due to time zone crossing. See the UCA3596 flight status page for this flight to view local times or setup timezone preferences in your user account.

Time Position Orientation Groundspeed Altitude Reporting Facility
EDT Latitude Longitude Course Direction KTS MPH feet Rate Location/Type
02:37PM 42.1583 -75.9936 212° Southwest 137 158 3,600  Level New York Center
02:38PM 42.1167 -76.0408 220° Southwest 165 190 4,800 1,380 Climbing New York Center
02:40PM 42.0386 -76.1128 214° Southwest 180 207 7,900 1,440 Climbing New York Center
02:41PM 42.0377 -76.0611 212° Southwest  Level Estimated
02:41PM 42.0036 -76.1461 215° Southwest 175 201 9,200  Level New York Center
02:42PM 41.9667 -76.1794 214° Southwest 175 201 10,200 1,140 Climbing New York Center
02:43PM 41.9233 -76.2206 215° Southwest 181 208 11,500 1,320 Climbing New York Center
02:44PM 41.8797 -76.2642 217° Southwest 186 214 12,900 1,320 Climbing New York Center
02:45PM 41.8358 -76.3081 217° Southwest 186 214 14,200 1,200 Climbing New York Center
02:46PM 41.7969 -76.3408 212° Southwest 186 214 15,400 900 Climbing New York Center
02:47PM 41.7531 -76.3844 217° Southwest 194 223 16,000 300 Climbing New York Center
02:48PM 41.6942 -76.4406 215° Southwest 226 260 16,000  Level New York Center
02:49PM 41.6397 -76.4917 215° Southwest 244 281 16,000  Level New York Center
02:50PM 41.5811 -76.5447 214° Southwest 254 292 16,000  Level New York Center
02:51PM 41.5308 -76.5931 216° Southwest 254 292 16,000  Level New York Center
02:52PM 41.4739 -76.6464 215° Southwest 254 292 16,000  Level New York Center
02:53PM 41.4103 -76.7100 217° Southwest 254 292 16,000  Level New York Center
02:54PM 41.3533 -76.7658 216° Southwest 259 298 16,000  Level New York Center
02:55PM 41.2853 -76.7928 197° South 253 291 16,000  Level New York Center
02:56PM 41.2117 -76.8056 187° South 258 297 16,000  Level New York Center
02:57PM 41.1383 -76.8183 187° South 264 304 16,000  Level New York Center
02:58PM 41.0689 -76.8314 188° South 264 304 16,000  Level New York Center
02:59PM 40.9972 -76.8442 188° South 264 304 16,000  Level New York Center
03:00PM 40.9319 -76.8578 189° South 259 298 16,000  Level New York Center
03:01PM 40.8561 -76.8728 189° South 259 298 16,000  Level New York Center
03:02PM 40.7847 -76.8856 188° South 259 298 16,000  Level New York Center
03:03PM 40.7169 -76.9069 193° South 259 298 16,000  Level New York Center
03:04PM 40.6511 -76.9286 194° South 259 298 16,000  Level New York Center
03:05PM 40.5833 -76.9497 193° South 254 292 16,000  Level New York Center
03:06PM 40.5133 -76.9708 193° South 254 292 16,000  Level New York Center
03:07PM 40.4478 -76.9922 194° South 259 298 16,000  Level New York Center
03:08PM 40.3819 -77.0136 194° South 254 292 16,000 -60 Level New York Center
03:09PM 40.3142 -77.0347 193° South 254 292 15,900 -60 Descending New York Center
03:11PM 40.2000 -77.0667 192° South 250 288 15,900 -60 Level Potomac TRACON
03:12PM 40.1333 -77.0833 191° South 253 291 15,800 -600 Descending Potomac TRACON
03:13PM 40.0667 -77.1167 201° Southwest 273 314 14,800 -1,020 Descending Potomac TRACON
03:14PM 40.0000 -77.1333 191° South 279 321 13,900 -1,020 Descending Potomac TRACON
03:15PM 39.9167 -77.1500 189° South 278 320 12,800 -1,020 Descending Potomac TRACON
03:16PM 39.8333 -77.1833 197° South 271 312 11,800 -1,020 Descending Potomac TRACON
03:17PM 39.7667 -77.2000 191° South 266 306 10,800 -1,020 Descending Potomac TRACON
03:18PM 39.7000 -77.2167 191° South 268 308 9,800 -1,020 Descending Potomac TRACON
03:19PM 39.6500 -77.3000 232° Southwest 266 306 8,800 -900 Descending Potomac TRACON
03:20PM 39.6000 -77.3667 226° Southwest 260 299 8,000 -480 Descending Potomac TRACON
03:21PM 39.5333 -77.4000 201° Southwest 243 280 7,900  Descending Potomac TRACON
03:22PM 39.4833 -77.4333 207° Southwest 243 280 8,000 -360 Climbing Potomac TRACON
03:23PM 39.4167 -77.4500 191° South 253 291 7,300 -960 Descending Potomac TRACON
03:24PM 39.3500 -77.4500 180° South 227 261 6,100 -1,140 Descending Potomac TRACON
03:25PM 39.3000 -77.4500 180° South 187 215 5,100 -600 Descending Potomac TRACON
03:26PM 39.2500 -77.4500 180° South 171 197 4,900 -240 Descending Potomac TRACON
03:27PM 39.2000 -77.4500 180° South 173 199 4,600 -660 Descending Potomac TRACON
03:28PM 39.1500 -77.4500 180° South 172 198 3,700 -960 Descending Potomac TRACON
03:29PM 39.1000 -77.4500 180° South 161 185 2,800 -900 Descending Potomac TRACON
03:30PM 39.0667 -77.4500 180° South 168 193 2,000 -840 Descending Potomac TRACON
03:31PM 39.0167 -77.4667 195° South 143 165 1,200 -780 Descending Potomac TRACON
03:32PM 38.9833 -77.4667 180° South 131 151 500 -720 Descending Potomac TRACON
03:34PM 38.9474 -77.4599 180° South  Level Estimated